Time;durP1;ratioP1;P1;durP2;ratioP2;P2;SDS_P1;SDS_P2;PMS_P1;PMS_P2;Temp;Humidity;BMP_temperature;BMP_pressure;BME280_temperature;BME280_humidity;BME280_pressure;Samples;Min_cycle;Max_cycle;Signal;HPM_P1;HPM_P2
2022/05/21 00:00:12;;;;;;;13.50;7.70;;;;;;;;;;5014648;28;20466;-59
2022/05/21 00:02:37;;;;;;;13.27;8.10;;;;;;;;;;5032283;28;20025;-58
2022/05/21 00:05:04;;;;;;;12.77;7.50;;;;;;;;;;5015578;28;20075;-58
2022/05/21 00:07:29;;;;;;;15.05;8.90;;;;;;;;;;5030419;28;20163;-54
2022/05/21 00:09:54;;;;;;;12.88;8.35;;;;;;;;;;5033532;28;20117;-57
2022/05/21 00:12:20;;;;;;;12.73;7.82;;;;;;;;;;5013300;28;20473;-56
2022/05/21 00:14:45;;;;;;;15.50;8.85;;;;;;;;;;5033480;28;20034;-57
2022/05/21 00:17:11;;;;;;;16.02;9.10;;;;;;;;;;5030878;28;20061;-58
2022/05/21 00:19:36;;;;;;;14.05;8.23;;;;;;;;;;5029109;28;20034;-51
2022/05/21 00:22:02;;;;;;;14.07;7.55;;;;;;;;;;5030071;28;20183;-55
2022/05/21 00:24:28;;;;;;;13.60;7.78;;;;;;;;;;5014730;28;20537;-60
2022/05/21 00:26:54;;;;;;;12.73;7.78;;;;;;;;;;5031567;28;20116;-58
2022/05/21 00:29:20;;;;;;;15.43;8.07;;;;;;;;;;5020952;28;20450;-57
2022/05/21 00:31:46;;;;;;;13.45;8.13;;;;;;;;;;5033103;28;20052;-55
2022/05/21 00:34:12;;;;;;;18.55;8.48;;;;;;;;;;5031556;28;20041;-58
2022/05/21 00:36:38;;;;;;;15.18;8.75;;;;;;;;;;5030894;28;20025;-56
2022/05/21 00:39:04;;;;;;;13.65;8.55;;;;;;;;;;5032752;28;20033;-56
2022/05/21 00:41:31;;;;;;;12.43;8.43;;;;;;;;;;5031864;28;20017;-58
2022/05/21 00:44:02;;;;;;;14.88;8.57;;;;;;;;;;5033604;28;20025;-58
2022/05/21 00:46:33;;;;;;;13.40;8.63;;;;;;;;;;5027612;28;20065;-58
2022/05/21 00:49:11;;;;;;;14.13;8.68;;;;;;;;;;5026528;28;20469;-55
2022/05/21 00:51:43;;;;;;;16.52;8.25;;;;;;;;;;5032026;28;20148;-58
2022/05/21 00:54:09;;;;;;;14.90;8.75;;;;;;;;;;5015615;28;20040;-56
2022/05/21 00:56:43;;;;;;;17.00;8.68;;;;;;;;;;5031553;28;20033;-58
2022/05/21 01:01:57;;;;;;;17.38;9.13;;;;;;;;;;5031186;28;20028;-58
2022/05/21 01:04:24;;;;;;;15.73;9.23;;;;;;;;;;5031394;28;20527;-58
2022/05/21 01:06:52;;;;;;;15.45;8.70;;;;;;;;;;5026000;28;20455;-55
2022/05/21 01:09:18;;;;;;;18.73;9.40;;;;;;;;;;5019624;28;20021;-59
2022/05/21 01:11:43;;;;;;;15.75;8.68;;;;;;;;;;5012548;28;20026;-58
2022/05/21 01:14:10;;;;;;;14.98;8.65;;;;;;;;;;5030597;28;20116;-58
2022/05/21 01:16:37;;;;;;;16.48;8.38;;;;;;;;;;5029759;28;20033;-54
2022/05/21 01:19:10;;;;;;;12.65;7.93;;;;;;;;;;5029376;28;20026;-57
2022/05/21 01:21:37;;;;;;;13.50;8.20;;;;;;;;;;5032060;28;20644;-58
2022/05/21 01:24:05;;;;;;;12.77;8.13;;;;;;;;;;5028614;28;20386;-58
2022/05/21 01:26:32;;;;;;;12.52;8.48;;;;;;;;;;5018889;28;20033;-57
2022/05/21 01:28:58;;;;;;;15.82;8.50;;;;;;;;;;5031685;28;20104;-57
2022/05/21 01:31:23;;;;;;;16.42;9.52;;;;;;;;;;5031023;28;20446;-58
2022/05/21 01:33:49;;;;;;;14.05;8.80;;;;;;;;;;5011803;28;20485;-55
2022/05/21 01:36:15;;;;;;;17.13;9.63;;;;;;;;;;5013778;28;20033;-59
2022/05/21 01:38:42;;;;;;;16.48;9.90;;;;;;;;;;5030324;28;20112;-58
2022/05/21 01:41:10;;;;;;;17.23;10.15;;;;;;;;;;5013917;28;20083;-56
2022/05/21 01:46:24;;;;;;;18.27;10.07;;;;;;;;;;5023337;28;20035;-56
2022/05/21 01:48:49;;;;;;;17.63;10.68;;;;;;;;;;5025438;28;20385;-59
2022/05/21 01:51:15;;;;;;;18.88;10.05;;;;;;;;;;5032102;28;20117;-59
2022/05/21 01:53:41;;;;;;;15.45;10.00;;;;;;;;;;5027338;28;20156;-58
2022/05/21 01:56:08;;;;;;;19.15;10.40;;;;;;;;;;5023195;28;20056;-58
2022/05/21 01:58:35;;;;;;;16.23;9.65;;;;;;;;;;5029407;28;20064;-58
2022/05/21 02:01:00;;;;;;;18.10;10.10;;;;;;;;;;5030755;28;20069;-56
2022/05/21 02:03:26;;;;;;;19.55;9.50;;;;;;;;;;5010209;28;20056;-58
2022/05/21 02:05:51;;;;;;;17.42;9.90;;;;;;;;;;5027696;28;20116;-56
2022/05/21 02:08:17;;;;;;;16.02;9.23;;;;;;;;;;5030798;28;20036;-59
2022/05/21 02:10:44;;;;;;;13.23;8.07;;;;;;;;;;5029293;28;20479;-55
2022/05/21 02:13:23;;;;;;;19.40;8.90;;;;;;;;;;5031852;28;20025;-56
2022/05/21 02:15:49;;;;;;;13.13;7.55;;;;;;;;;;5018369;28;20047;-58
2022/05/21 02:18:16;;;;;;;16.10;8.57;;;;;;;;;;5027521;28;20112;-56
2022/05/21 02:20:41;;;;;;;12.80;8.07;;;;;;;;;;5028619;28;20537;-56
2022/05/21 02:23:07;;;;;;;16.02;7.93;;;;;;;;;;5018807;28;20124;-57
2022/05/21 02:25:33;;;;;;;13.52;7.40;;;;;;;;;;5029025;28;20029;-58
2022/05/21 02:27:59;;;;;;;14.35;7.85;;;;;;;;;;5029182;28;20060;-58
2022/05/21 02:30:24;;;;;;;12.43;7.65;;;;;;;;;;5000440;28;20061;-56
2022/05/21 02:32:50;;;;;;;13.95;7.38;;;;;;;;;;5030501;28;20025;-57
2022/05/21 02:35:16;;;;;;;12.13;7.15;;;;;;;;;;5017610;28;20033;-58
2022/05/21 02:40:25;;;;;;;14.73;6.78;;;;;;;;;;5018242;28;20080;-58
2022/05/21 02:42:50;;;;;;;12.50;5.63;;;;;;;;;;5013810;28;20053;-58
2022/05/21 02:45:25;;;;;;;13.85;6.80;;;;;;;;;;5017194;28;20041;-59
2022/05/21 02:47:51;;;;;;;13.32;6.85;;;;;;;;;;5027552;28;20033;-58
2022/05/21 02:50:20;;;;;;;10.05;6.35;;;;;;;;;;5028147;28;20489;-57
2022/05/21 02:52:46;;;;;;;12.15;7.10;;;;;;;;;;5030072;28;20404;-57
2022/05/21 02:55:13;;;;;;;9.93;6.40;;;;;;;;;;5030452;28;20108;-58
2022/05/21 02:57:40;;;;;;;16.60;8.25;;;;;;;;;;5030395;28;20593;-56
2022/05/21 03:00:26;;;;;;;14.60;8.23;;;;;;;;;;5028696;28;20033;-57
2022/05/21 03:02:52;;;;;;;15.57;8.70;;;;;;;;;;5029642;28;20045;-56
2022/05/21 03:05:18;;;;;;;14.40;9.63;;;;;;;;;;5029091;28;20030;-58
2022/05/21 03:07:47;;;;;;;15.65;9.88;;;;;;;;;;5030788;28;20037;-55
2022/05/21 03:10:22;;;;;;;14.45;9.63;;;;;;;;;;5030164;28;20442;-55
2022/05/21 03:12:55;;;;;;;14.82;10.25;;;;;;;;;;5031274;28;20083;-54
2022/05/21 03:15:23;;;;;;;20.10;10.85;;;;;;;;;;5028505;28;20477;-57
2022/05/21 03:17:49;;;;;;;14.90;9.35;;;;;;;;;;5030258;28;20410;-53
2022/05/21 03:20:17;;;;;;;15.38;11.18;;;;;;;;;;5013736;28;20072;-54
2022/05/21 03:22:43;;;;;;;15.45;9.07;;;;;;;;;;5010679;28;20034;-58
2022/05/21 03:25:10;;;;;;;17.40;11.25;;;;;;;;;;5024636;28;20040;-56
2022/05/21 03:27:35;;;;;;;14.98;8.45;;;;;;;;;;5030404;28;20034;-55
2022/05/21 03:30:02;;;;;;;14.07;8.68;;;;;;;;;;5009926;28;20041;-54
2022/05/21 03:32:28;;;;;;;18.08;11.10;;;;;;;;;;5031335;28;20405;-57
2022/05/21 03:34:53;;;;;;;17.67;10.90;;;;;;;;;;5014252;28;20095;-51
2022/05/21 03:37:18;;;;;;;17.42;11.82;;;;;;;;;;5020285;28;20492;-58
2022/05/21 03:39:44;;;;;;;16.48;11.00;;;;;;;;;;5029948;28;20076;-57
2022/05/21 03:42:10;;;;;;;15.60;9.70;;;;;;;;;;5034618;28;20112;-57
2022/05/21 03:44:35;;;;;;;15.35;10.25;;;;;;;;;;5031748;28;20047;-57
2022/05/21 03:47:02;;;;;;;14.38;10.18;;;;;;;;;;5033934;28;20025;-56
2022/05/21 03:49:28;;;;;;;15.95;10.02;;;;;;;;;;5020332;28;20104;-59
2022/05/21 03:51:53;;;;;;;19.92;10.18;;;;;;;;;;5015007;28;20459;-58
2022/05/21 03:54:19;;;;;;;18.67;11.32;;;;;;;;;;5028318;28;20120;-58
2022/05/21 03:56:44;;;;;;;16.42;9.88;;;;;;;;;;5016282;28;20032;-57
2022/05/21 03:59:09;;;;;;;15.30;10.05;;;;;;;;;;5020263;28;20509;-57
2022/05/21 04:01:35;;;;;;;14.45;10.00;;;;;;;;;;5015584;28;20096;-59
2022/05/21 04:04:00;;;;;;;17.88;10.90;;;;;;;;;;5029270;28;20068;-57
2022/05/21 04:06:26;;;;;;;16.63;9.65;;;;;;;;;;5015081;28;20029;-58
2022/05/21 04:08:52;;;;;;;18.05;8.65;;;;;;;;;;5032706;28;20485;-54
2022/05/21 04:11:18;;;;;;;14.30;9.98;;;;;;;;;;5034370;28;20037;-57
2022/05/21 04:13:43;;;;;;;18.70;10.05;;;;;;;;;;5017848;28;20036;-57
2022/05/21 04:16:09;;;;;;;16.98;9.63;;;;;;;;;;5013359;28;20037;-57
2022/05/21 04:18:34;;;;;;;18.88;9.65;;;;;;;;;;5028848;28;20033;-59
2022/05/21 04:21:00;;;;;;;18.75;9.18;;;;;;;;;;5029193;28;20382;-57
2022/05/21 04:23:25;;;;;;;20.77;9.57;;;;;;;;;;5030539;28;20038;-59
2022/05/21 04:25:50;;;;;;;19.67;9.98;;;;;;;;;;5033260;28;20405;-55
2022/05/21 04:28:16;;;;;;;15.20;10.13;;;;;;;;;;5033109;28;20041;-58
2022/05/21 04:30:42;;;;;;;16.63;9.40;;;;;;;;;;5033279;28;20065;-58
2022/05/21 04:33:07;;;;;;;16.33;9.43;;;;;;;;;;5024505;28;20030;-58
2022/05/21 04:38:17;;;;;;;17.45;10.30;;;;;;;;;;5021202;28;20045;-56
2022/05/21 04:40:43;;;;;;;20.23;10.52;;;;;;;;;;5032866;28;20123;-56
2022/05/21 04:43:09;;;;;;;19.48;10.32;;;;;;;;;;5031206;28;20481;-58
2022/05/21 04:45:34;;;;;;;17.17;10.27;;;;;;;;;;5031719;28;20030;-58
2022/05/21 04:48:04;;;;;;;16.73;9.55;;;;;;;;;;5025956;28;20389;-58
2022/05/21 04:50:30;;;;;;;14.52;9.10;;;;;;;;;;5030867;28;20462;-57
2022/05/21 04:52:55;;;;;;;15.10;9.45;;;;;;;;;;5033085;28;20033;-56
2022/05/21 04:55:21;;;;;;;16.67;10.30;;;;;;;;;;5032648;28;20033;-57
2022/05/21 04:57:46;;;;;;;19.38;9.60;;;;;;;;;;5013460;28;20021;-57
2022/05/21 05:00:12;;;;;;;17.02;8.23;;;;;;;;;;5033417;28;20029;-56
2022/05/21 05:02:38;;;;;;;18.48;9.25;;;;;;;;;;5029416;28;20042;-58
2022/05/21 05:05:04;;;;;;;22.70;9.23;;;;;;;;;;5031238;28;20033;-55
2022/05/21 05:07:30;;;;;;;18.77;9.30;;;;;;;;;;5026126;28;20029;-58
2022/05/21 05:09:55;;;;;;;13.30;8.57;;;;;;;;;;5013284;28;20030;-56
2022/05/21 05:12:20;;;;;;;15.10;8.90;;;;;;;;;;5015540;28;20503;-56
2022/05/21 05:14:46;;;;;;;15.43;7.15;;;;;;;;;;5031485;28;20141;-59
2022/05/21 05:17:13;;;;;;;16.23;8.57;;;;;;;;;;5030401;28;20029;-59
2022/05/21 05:19:38;;;;;;;18.48;9.10;;;;;;;;;;5030708;28;20043;-57
2022/05/21 05:22:04;;;;;;;13.45;8.23;;;;;;;;;;5030714;28;20112;-56
2022/05/21 05:24:30;;;;;;;21.42;9.10;;;;;;;;;;5030807;28;20108;-59
2022/05/21 05:26:55;;;;;;;16.75;9.50;;;;;;;;;;5031175;28;20493;-58
2022/05/21 05:29:21;;;;;;;16.08;8.65;;;;;;;;;;5025872;28;20404;-59
2022/05/21 05:31:47;;;;;;;17.65;9.18;;;;;;;;;;5030935;28;20041;-58
2022/05/21 05:34:12;;;;;;;14.32;8.20;;;;;;;;;;5032731;28;20420;-58
2022/05/21 05:36:38;;;;;;;15.70;8.13;;;;;;;;;;5031933;28;20037;-55
2022/05/21 05:39:03;;;;;;;19.23;8.82;;;;;;;;;;5032733;28;20071;-58
2022/05/21 05:41:29;;;;;;;15.45;7.60;;;;;;;;;;5006846;28;20087;-59
2022/05/21 05:43:56;;;;;;;17.52;8.18;;;;;;;;;;5021728;28;20048;-55
2022/05/21 05:46:25;;;;;;;15.07;8.30;;;;;;;;;;5013435;28;20048;-58
2022/05/21 05:48:51;;;;;;;13.50;6.90;;;;;;;;;;5031347;28;20056;-58
2022/05/21 05:51:17;;;;;;;14.70;7.60;;;;;;;;;;5031698;28;20061;-60
2022/05/21 05:53:46;;;;;;;15.20;8.25;;;;;;;;;;5030640;28;20029;-57
2022/05/21 05:56:12;;;;;;;15.32;8.52;;;;;;;;;;5013977;28;20393;-58
2022/05/21 06:01:23;;;;;;;16.73;8.68;;;;;;;;;;5032149;28;20079;-57
2022/05/21 06:03:49;;;;;;;17.00;8.15;;;;;;;;;;5028527;28;20096;-57
2022/05/21 06:06:15;;;;;;;17.10;9.27;;;;;;;;;;5031286;28;20108;-59
2022/05/21 06:08:41;;;;;;;14.45;8.15;;;;;;;;;;5028980;28;20488;-61
2022/05/21 06:11:06;;;;;;;16.50;7.90;;;;;;;;;;5031227;28;20030;-58
2022/05/21 06:13:33;;;;;;;16.80;8.75;;;;;;;;;;5029660;28;20110;-62
2022/05/21 06:15:59;;;;;;;15.32;7.93;;;;;;;;;;5023917;28;20033;-64
2022/05/21 06:18:25;;;;;;;16.50;8.48;;;;;;;;;;5031004;28;20483;-64
2022/05/21 06:20:51;;;;;;;15.45;9.15;;;;;;;;;;5027924;28;20025;-60
2022/05/21 06:23:16;;;;;;;17.52;8.68;;;;;;;;;;5023141;28;20033;-63
2022/05/21 06:25:42;;;;;;;19.02;9.10;;;;;;;;;;5011117;28;20029;-61
2022/05/21 06:28:07;;;;;;;17.67;8.55;;;;;;;;;;5014500;28;20045;-62
2022/05/21 06:30:35;;;;;;;14.57;8.23;;;;;;;;;;5011560;28;20041;-62
2022/05/21 06:33:17;;;;;;;18.92;9.77;;;;;;;;;;5024485;28;20529;-63
2022/05/21 06:35:44;;;;;;;15.43;8.63;;;;;;;;;;5011267;28;20026;-61
2022/05/21 06:38:10;;;;;;;16.27;9.20;;;;;;;;;;5031541;28;20470;-62
2022/05/21 06:40:35;;;;;;;18.38;9.50;;;;;;;;;;5031121;28;20037;-60
2022/05/21 06:43:00;;;;;;;23.90;8.52;;;;;;;;;;5020950;28;20033;-64
2022/05/21 06:45:30;;;;;;;16.27;8.70;;;;;;;;;;5014160;28;20096;-64
2022/05/21 06:48:04;;;;;;;18.98;9.43;;;;;;;;;;5020067;28;20524;-62
2022/05/21 06:50:29;;;;;;;16.35;8.48;;;;;;;;;;5030039;28;20049;-64
2022/05/21 06:52:55;;;;;;;17.65;8.77;;;;;;;;;;5028656;28;20025;-63
2022/05/21 06:55:21;;;;;;;16.35;7.93;;;;;;;;;;5030997;28;20087;-60
2022/05/21 06:57:48;;;;;;;18.88;9.50;;;;;;;;;;5024883;28;20473;-61
2022/05/21 07:00:15;;;;;;;17.23;8.60;;;;;;;;;;5011740;28;20126;-60
2022/05/21 07:02:41;;;;;;;19.23;8.90;;;;;;;;;;5011214;28;20084;-61
2022/05/21 07:07:50;;;;;;;14.52;8.43;;;;;;;;;;5032788;28;20040;-61
2022/05/21 07:10:20;;;;;;;18.80;8.95;;;;;;;;;;5035550;28;20036;-60
2022/05/21 07:12:45;;;;;;;20.35;9.52;;;;;;;;;;5032963;28;20531;-61
2022/05/21 07:15:12;;;;;;;14.27;8.45;;;;;;;;;;5034339;28;20124;-60
2022/05/21 07:17:37;;;;;;;20.50;8.88;;;;;;;;;;5022570;28;20029;-60
2022/05/21 07:20:05;;;;;;;16.65;7.60;;;;;;;;;;5034919;28;20462;-60
2022/05/21 07:22:30;;;;;;;19.23;8.38;;;;;;;;;;5035357;28;20044;-60
2022/05/21 07:24:56;;;;;;;17.85;8.13;;;;;;;;;;5033551;28;20112;-60
2022/05/21 07:27:23;;;;;;;15.50;7.30;;;;;;;;;;5034331;28;20116;-59
2022/05/21 07:29:49;;;;;;;14.90;7.88;;;;;;;;;;5032941;28;20121;-58
2022/05/21 07:32:17;;;;;;;17.02;7.07;;;;;;;;;;5025264;28;20116;-57
2022/05/21 07:34:42;;;;;;;14.30;7.50;;;;;;;;;;5033768;28;20048;-61
2022/05/21 07:37:08;;;;;;;17.42;7.07;;;;;;;;;;5034024;28;20081;-59
2022/05/21 07:39:33;;;;;;;14.18;7.63;;;;;;;;;;5019941;28;20125;-61
2022/05/21 07:41:58;;;;;;;13.05;6.57;;;;;;;;;;5013994;28;20042;-58
2022/05/21 07:44:24;;;;;;;17.35;6.72;;;;;;;;;;5014793;28;20030;-58
2022/05/21 07:46:49;;;;;;;18.05;6.68;;;;;;;;;;5026269;28;20399;-58
2022/05/21 07:49:15;;;;;;;15.52;7.03;;;;;;;;;;5034626;28;20454;-58
2022/05/21 07:51:40;;;;;;;16.95;6.78;;;;;;;;;;5033322;28;20041;-60
2022/05/21 07:54:05;;;;;;;13.88;6.60;;;;;;;;;;5034520;28;20125;-59
2022/05/21 07:56:32;;;;;;;13.00;5.90;;;;;;;;;;5033841;28;20057;-58
2022/05/21 07:58:57;;;;;;;13.77;6.15;;;;;;;;;;5033798;28;20041;-58
2022/05/21 08:01:23;;;;;;;18.08;6.35;;;;;;;;;;5015850;28;20026;-59
2022/05/21 08:03:48;;;;;;;15.30;6.35;;;;;;;;;;5032563;28;20037;-58
2022/05/21 08:06:15;;;;;;;12.23;5.93;;;;;;;;;;5033219;28;20037;-57
2022/05/21 08:08:40;;;;;;;20.55;6.03;;;;;;;;;;5033709;28;20078;-58
2022/05/21 08:11:06;;;;;;;11.85;5.88;;;;;;;;;;5016477;28;20038;-59
2022/05/21 08:13:31;;;;;;;15.07;6.32;;;;;;;;;;5014529;28;20034;-58
2022/05/21 08:15:56;;;;;;;17.55;7.65;;;;;;;;;;5028823;28;20037;-55
2022/05/21 08:18:22;;;;;;;11.40;6.75;;;;;;;;;;4996203;28;20171;-58
2022/05/21 08:20:49;;;;;;;13.23;6.85;;;;;;;;;;5026269;28;20049;-59
2022/05/21 08:28:45;;;;;;;15.85;7.15;;;;;;;;;;5014292;28;20048;-60
2022/05/21 08:31:11;;;;;;;20.88;8.88;;;;;;;;;;5013701;28;20034;-60
2022/05/21 08:33:36;;;;;;;14.00;7.78;;;;;;;;;;4996774;28;20102;-59
2022/05/21 08:36:02;;;;;;;20.08;8.63;;;;;;;;;;5018397;28;20458;-59
2022/05/21 08:38:27;;;;;;;19.50;9.85;;;;;;;;;;5014472;28;20072;-58
2022/05/21 08:41:03;;;;;;;17.75;9.35;;;;;;;;;;5030106;28;20041;-59
2022/05/21 08:43:53;;;;;;;20.27;9.20;;;;;;;;;;5019367;28;20034;-59
2022/05/21 08:46:55;;;;;;;18.27;8.88;;;;;;;;;;5013854;28;20400;-58
2022/05/21 08:49:36;;;;;;;18.23;7.75;;;;;;;;;;5011072;28;20141;-58
2022/05/21 08:52:16;;;;;;;19.48;9.73;;;;;;;;;;5015551;28;20614;-56
2022/05/21 08:54:45;;;;;;;15.80;7.68;;;;;;;;;;5019858;28;20089;-60
2022/05/21 08:58:02;;;;;;;18.17;9.23;;;;;;;;;;5002350;28;20037;-58
2022/05/21 09:00:35;;;;;;;15.80;8.15;;;;;;;;;;4969908;28;20042;-59
2022/05/21 09:03:04;;;;;;;16.63;8.50;;;;;;;;;;5020076;28;20099;-59
2022/05/21 09:05:30;;;;;;;16.75;6.97;;;;;;;;;;5032418;28;20116;-58
2022/05/21 09:08:02;;;;;;;16.13;8.63;;;;;;;;;;5032831;28;20113;-58
2022/05/21 09:10:50;;;;;;;17.05;8.57;;;;;;;;;;5033254;28;20041;-59
2022/05/21 09:13:36;;;;;;;17.55;8.50;;;;;;;;;;5033332;28;20175;-59
2022/05/21 09:18:47;;;;;;;15.30;8.50;;;;;;;;;;5029189;28;20036;-60
2022/05/21 09:21:19;;;;;;;16.20;8.30;;;;;;;;;;5028621;28;20041;-59
2022/05/21 09:23:45;;;;;;;11.27;6.25;;;;;;;;;;5009018;28;20048;-60
2022/05/21 09:26:11;;;;;;;16.25;8.27;;;;;;;;;;5032657;28;20034;-60
2022/05/21 09:28:38;;;;;;;14.82;8.05;;;;;;;;;;5015007;28;20025;-58
2022/05/21 09:31:06;;;;;;;17.65;8.18;;;;;;;;;;5031779;28;20160;-59
2022/05/21 09:33:40;;;;;;;12.70;6.10;;;;;;;;;;5032625;28;20033;-58
2022/05/21 09:36:07;;;;;;;17.15;7.03;;;;;;;;;;5029687;28;20846;-58
2022/05/21 09:38:47;;;;;;;15.23;7.55;;;;;;;;;;5023566;28;20037;-56
2022/05/21 09:41:22;;;;;;;14.10;8.30;;;;;;;;;;5028259;28;20038;-57
2022/05/21 09:46:43;;;;;;;17.70;7.20;;;;;;;;;;5029075;28;20048;-58
2022/05/21 09:49:31;;;;;;;14.48;7.30;;;;;;;;;;5029674;28;20102;-58
2022/05/21 09:51:59;;;;;;;13.70;6.68;;;;;;;;;;5024324;28;20466;-58
2022/05/21 09:54:36;;;;;;;12.80;8.10;;;;;;;;;;5012703;28;20037;-57
2022/05/21 09:57:03;;;;;;;14.85;7.80;;;;;;;;;;5011250;28;20026;-57
2022/05/21 09:59:30;;;;;;;15.05;8.48;;;;;;;;;;5017354;28;20422;-57
2022/05/21 10:02:01;;;;;;;12.95;7.70;;;;;;;;;;5030395;28;20049;-58
2022/05/21 10:04:56;;;;;;;15.68;8.48;;;;;;;;;;5031648;28;20436;-58
2022/05/21 10:13:11;;;;;;;14.75;7.90;;;;;;;;;;5011779;28;19916;-57
2022/05/21 10:15:40;;;;;;;13.85;8.00;;;;;;;;;;4994264;28;20034;-57
2022/05/21 10:18:28;;;;;;;14.65;7.78;;;;;;;;;;5019346;28;20095;-57
2022/05/21 10:21:03;;;;;;;16.35;7.93;;;;;;;;;;5011322;28;20044;-57
2022/05/21 10:24:14;;;;;;;17.15;7.50;;;;;;;;;;5008435;28;20076;-57
2022/05/21 10:27:17;;;;;;;14.33;8.20;;;;;;;;;;5023023;28;20042;-58
2022/05/21 10:30:20;;;;;;;15.25;8.48;;;;;;;;;;5018147;28;20349;-56
2022/05/21 10:33:15;;;;;;;17.95;8.68;;;;;;;;;;4943232;29;20035;-59
2022/05/21 10:36:33;;;;;;;16.35;8.20;;;;;;;;;;4915758;28;20047;-57
2022/05/21 10:39:32;;;;;;;15.93;8.63;;;;;;;;;;4874339;29;20064;-57
2022/05/21 10:42:13;;;;;;;14.55;7.43;;;;;;;;;;4870470;29;20656;-58
2022/05/21 10:44:57;;;;;;;15.93;8.60;;;;;;;;;;4875142;29;20482;-58
2022/05/21 10:48:10;;;;;;;16.83;7.90;;;;;;;;;;4874776;29;20068;-58
2022/05/21 10:51:00;;;;;;;14.45;7.75;;;;;;;;;;4875345;29;20049;-56
2022/05/21 10:53:31;;;;;;;12.27;5.90;;;;;;;;;;4874683;29;20044;-58
2022/05/21 10:56:20;;;;;;;15.25;6.22;;;;;;;;;;4872321;29;20124;-60
2022/05/21 10:58:52;;;;;;;13.18;5.90;;;;;;;;;;4872659;29;20578;-56
2022/05/21 11:01:40;;;;;;;13.43;6.50;;;;;;;;;;4871836;29;20119;-56
2022/05/21 11:04:39;;;;;;;10.98;5.80;;;;;;;;;;4900079;29;20963;-55
2022/05/21 11:07:30;;;;;;;9.27;4.65;;;;;;;;;;4912016;29;20557;-57
2022/05/21 11:10:15;;;;;;;10.82;5.65;;;;;;;;;;4962761;28;20137;-58
2022/05/21 11:12:57;;;;;;;12.20;5.00;;;;;;;;;;4983403;28;20424;-58
2022/05/21 11:15:45;;;;;;;17.27;5.75;;;;;;;;;;4988182;28;20054;-57
2022/05/21 11:18:17;;;;;;;9.40;5.50;;;;;;;;;;4980437;28;20092;-57
2022/05/21 11:21:28;;;;;;;12.25;5.53;;;;;;;;;;4993546;28;20078;-56
2022/05/21 11:24:00;;;;;;;;;;;;;;;;;;5012932;28;20076;-51
2022/05/21 11:26:45;;;;;;;13.43;6.22;;;;;;;;;;5029440;28;19913;-54
2022/05/21 11:29:53;;;;;;;12.82;5.93;;;;;;;;;;5011262;28;20025;-57
2022/05/21 11:38:01;;;;;;;13.35;6.43;;;;;;;;;;5028965;28;20044;-57
2022/05/21 11:41:24;;;;;;;13.15;6.25;;;;;;;;;;5021010;28;20029;-57
2022/05/21 11:46:45;;;;;;;15.30;7.03;;;;;;;;;;5030396;28;20052;-58
2022/05/21 11:49:28;;;;;;;10.45;5.55;;;;;;;;;;5011655;28;20076;-58
2022/05/21 11:51:58;;;;;;;12.43;5.10;;;;;;;;;;5029185;28;20037;-59
2022/05/21 11:54:45;;;;;;;12.23;5.57;;;;;;;;;;5020414;28;20129;-59
2022/05/21 11:57:11;;;;;;;14.80;5.60;;;;;;;;;;5014123;28;20033;-56
2022/05/21 11:59:52;;;;;;;9.15;5.53;;;;;;;;;;5014818;28;20057;-57
2022/05/21 12:02:21;;;;;;;12.15;5.85;;;;;;;;;;5033763;28;20025;-59
2022/05/21 12:04:49;;;;;;;13.10;5.28;;;;;;;;;;5033718;28;20037;-58
2022/05/21 12:07:36;;;;;;;11.07;5.55;;;;;;;;;;5033664;28;20091;-59
2022/05/21 12:10:13;;;;;;;10.40;5.72;;;;;;;;;;5021565;28;20492;-53
2022/05/21 12:13:03;;;;;;;12.15;5.78;;;;;;;;;;5025630;28;20057;-59
2022/05/21 12:15:40;;;;;;;12.13;5.43;;;;;;;;;;4997019;28;20030;-58
2022/05/21 12:18:27;;;;;;;11.88;5.97;;;;;;;;;;5020902;28;20040;-56
2022/05/21 12:20:53;;;;;;;10.30;5.80;;;;;;;;;;5002578;28;20030;-59
2022/05/21 12:23:35;;;;;;;13.40;6.95;;;;;;;;;;5013659;28;20036;-58
2022/05/21 12:26:08;;;;;;;14.30;6.30;;;;;;;;;;5025039;28;20034;-58
2022/05/21 12:28:42;;;;;;;15.35;5.70;;;;;;;;;;5015713;28;20037;-57
2022/05/21 12:31:18;;;;;;;12.77;5.68;;;;;;;;;;5025630;28;20036;-58
2022/05/21 12:33:59;;;;;;;11.73;5.38;;;;;;;;;;5034129;28;20099;-59
2022/05/21 12:36:27;;;;;;;13.07;5.20;;;;;;;;;;5030112;28;20037;-58
2022/05/21 12:38:53;;;;;;;10.07;5.13;;;;;;;;;;5017119;28;20112;-59
2022/05/21 12:41:37;;;;;;;9.20;5.40;;;;;;;;;;5029937;28;20588;-57
2022/05/21 12:44:03;;;;;;;12.20;5.25;;;;;;;;;;5031121;28;20045;-58
2022/05/21 12:46:32;;;;;;;12.32;6.03;;;;;;;;;;5033499;28;20108;-59
2022/05/21 12:49:01;;;;;;;8.23;4.75;;;;;;;;;;5031981;28;20081;-57
2022/05/21 12:51:40;;;;;;;11.32;5.43;;;;;;;;;;5022592;28;20037;-58
2022/05/21 12:54:26;;;;;;;14.77;5.75;;;;;;;;;;5009977;28;20033;-57
2022/05/21 12:56:53;;;;;;;13.13;5.53;;;;;;;;;;5014289;28;20398;-58
2022/05/21 12:59:24;;;;;;;11.27;5.28;;;;;;;;;;5013528;28;20030;-58
2022/05/21 13:02:14;;;;;;;12.32;5.35;;;;;;;;;;5009334;28;20115;-61
2022/05/21 13:04:42;;;;;;;15.65;5.70;;;;;;;;;;5013545;28;20038;-66
2022/05/21 13:07:21;;;;;;;11.85;5.70;;;;;;;;;;5022360;28;20440;-69
2022/05/21 13:09:59;;;;;;;11.23;4.97;;;;;;;;;;5030093;28;20526;-65
2022/05/21 13:12:28;;;;;;;14.30;5.80;;;;;;;;;;5027303;28;20132;-61
2022/05/21 13:14:53;;;;;;;11.27;5.20;;;;;;;;;;5026961;28;20042;-60
2022/05/21 13:17:38;;;;;;;10.98;5.15;;;;;;;;;;5015173;28;20471;-61
2022/05/21 13:20:20;;;;;;;14.02;6.60;;;;;;;;;;5029895;28;20091;-60
2022/05/21 13:23:16;;;;;;;13.00;5.85;;;;;;;;;;5031601;28;20112;-60
2022/05/21 13:25:41;;;;;;;14.45;6.68;;;;;;;;;;5011408;28;20037;-60
2022/05/21 13:28:19;;;;;;;16.63;6.20;;;;;;;;;;5011892;28;20030;-60
2022/05/21 13:30:47;;;;;;;13.25;6.28;;;;;;;;;;5028586;28;20037;-58
2022/05/21 13:33:46;;;;;;;12.73;5.70;;;;;;;;;;5016436;28;20046;-61
2022/05/21 13:36:15;;;;;;;12.43;5.28;;;;;;;;;;5038125;28;20067;-61
2022/05/21 13:38:44;;;;;;;10.13;5.00;;;;;;;;;;5050448;28;20380;-60
2022/05/21 13:41:13;;;;;;;11.30;4.70;;;;;;;;;;5031676;28;20029;-60
2022/05/21 13:43:45;;;;;;;8.23;3.80;;;;;;;;;;5014894;28;20457;-61
2022/05/21 13:46:12;;;;;;;7.28;3.88;;;;;;;;;;5031432;28;20470;-60
2022/05/21 13:48:42;;;;;;;8.95;3.75;;;;;;;;;;5027138;28;20108;-59
2022/05/21 13:51:14;;;;;;;7.97;3.53;;;;;;;;;;5018643;28;20490;-60
2022/05/21 13:53:40;;;;;;;7.55;3.80;;;;;;;;;;5012786;28;20084;-60
2022/05/21 13:56:31;;;;;;;10.85;3.97;;;;;;;;;;5011732;28;20466;-59
2022/05/21 13:59:17;;;;;;;11.82;4.13;;;;;;;;;;5012580;28;20109;-60
2022/05/21 14:01:53;;;;;;;10.07;4.28;;;;;;;;;;5011106;28;20030;-60
2022/05/21 14:04:47;;;;;;;8.07;4.05;;;;;;;;;;5019762;28;20117;-62
2022/05/21 14:07:34;;;;;;;8.98;4.35;;;;;;;;;;5004061;28;20149;-60
2022/05/21 14:10:00;;;;;;;12.02;4.25;;;;;;;;;;5031719;28;20116;-60
2022/05/21 14:12:37;;;;;;;12.05;5.35;;;;;;;;;;5031386;28;20095;-60
2022/05/21 14:15:15;;;;;;;11.63;5.35;;;;;;;;;;5013483;28;20497;-60
2022/05/21 14:17:42;;;;;;;12.30;5.82;;;;;;;;;;5031156;28;20029;-59
2022/05/21 14:20:21;;;;;;;11.98;5.38;;;;;;;;;;5029640;28;20084;-59
2022/05/21 14:22:50;;;;;;;10.82;5.03;;;;;;;;;;5032019;28;20030;-59
2022/05/21 14:25:24;;;;;;;9.93;4.05;;;;;;;;;;5030823;28;20033;-59
2022/05/21 14:28:02;;;;;;;9.80;4.10;;;;;;;;;;5031856;28;20061;-60
2022/05/21 14:30:30;;;;;;;12.30;4.40;;;;;;;;;;5014109;28;20036;-59
2022/05/21 14:32:55;;;;;;;9.02;4.68;;;;;;;;;;5031719;28;20171;-60
2022/05/21 14:35:21;;;;;;;11.23;4.03;;;;;;;;;;5029607;28;20498;-59
2022/05/21 14:37:58;;;;;;;8.68;4.35;;;;;;;;;;5031751;28;20030;-59
2022/05/21 14:40:26;;;;;;;8.73;3.42;;;;;;;;;;5031156;28;20025;-60
2022/05/21 14:42:54;;;;;;;13.02;3.80;;;;;;;;;;5031870;28;20029;-60
2022/05/21 14:45:27;;;;;;;7.20;3.13;;;;;;;;;;5030509;28;20040;-60
2022/05/21 14:47:54;;;;;;;7.85;3.10;;;;;;;;;;5013357;28;20041;-60
2022/05/21 14:53:06;;;;;;;6.47;2.70;;;;;;;;;;5030512;28;20041;-61
2022/05/21 14:55:32;;;;;;;9.45;3.00;;;;;;;;;;5030158;28;20037;-60
2022/05/21 14:57:58;;;;;;;8.68;4.05;;;;;;;;;;5031642;28;20446;-60
2022/05/21 15:00:25;;;;;;;10.88;4.18;;;;;;;;;;5030425;28;20514;-60
2022/05/21 15:02:50;;;;;;;8.32;3.50;;;;;;;;;;5031398;28;20083;-61
2022/05/21 15:05:16;;;;;;;6.90;3.50;;;;;;;;;;5029654;28;20038;-60
2022/05/21 15:07:48;;;;;;;8.20;3.67;;;;;;;;;;5031334;28;20028;-60
2022/05/21 15:10:16;;;;;;;9.63;3.50;;;;;;;;;;5030356;28;20448;-61
2022/05/21 15:12:42;;;;;;;9.48;4.13;;;;;;;;;;5030752;28;20037;-61
2022/05/21 15:15:09;;;;;;;7.18;3.55;;;;;;;;;;5030876;28;20378;-61
2022/05/21 15:17:35;;;;;;;8.25;3.95;;;;;;;;;;5031286;28;20025;-60
2022/05/21 15:20:00;;;;;;;8.68;3.80;;;;;;;;;;5031373;28;20044;-61
2022/05/21 15:22:28;;;;;;;9.27;3.60;;;;;;;;;;5012960;28;20039;-60
2022/05/21 15:24:54;;;;;;;7.50;3.78;;;;;;;;;;5031187;28;20030;-60
2022/05/21 15:27:19;;;;;;;9.02;3.45;;;;;;;;;;5029514;28;20033;-60
2022/05/21 15:29:45;;;;;;;8.45;3.55;;;;;;;;;;5035280;28;20461;-60
2022/05/21 15:32:11;;;;;;;6.97;3.33;;;;;;;;;;5034370;28;20083;-61
2022/05/21 15:34:38;;;;;;;7.65;3.22;;;;;;;;;;5035021;28;20052;-61
2022/05/21 15:37:04;;;;;;;7.03;3.40;;;;;;;;;;5034592;28;20037;-61